Time;durP1;ratioP1;P1;durP2;ratioP2;P2;SDS_P1;SDS_P2;PMS_P1;PMS_P2;Temp;Humidity;BMP_temperature;BMP_pressure;BME280_temperature;BME280_humidity;BME280_pressure;Samples;Min_cycle;Max_cycle;Signal;HPM_P1;HPM_P2
2021/09/19 00:02:09;;;;;;;6.53;4.70;;;9.80;99.90;;;;;;5046206;28;20291;-67
2021/09/19 00:04:37;;;;;;;4.50;3.73;;;9.90;99.90;;;;;;5041251;28;20206;-67
2021/09/19 00:07:04;;;;;;;7.03;4.80;;;9.80;99.90;;;;;;5048428;28;20221;-67
2021/09/19 00:09:31;;;;;;;4.93;3.67;;;9.80;99.90;;;;;;5050343;28;20698;-67
2021/09/19 00:11:58;;;;;;;6.37;3.80;;;9.80;99.90;;;;;;5050583;28;20213;-66
2021/09/19 00:14:25;;;;;;;5.33;3.60;;;9.80;99.90;;;;;;5050624;28;20206;-66
2021/09/19 00:16:52;;;;;;;6.33;4.37;;;9.80;99.90;;;;;;5050402;28;20225;-67
2021/09/19 00:19:19;;;;;;;5.63;3.73;;;9.70;99.90;;;;;;5052244;28;20717;-68
2021/09/19 00:21:48;;;;;;;8.27;4.70;;;9.80;99.90;;;;;;5050319;28;20214;-67
2021/09/19 00:24:14;;;;;;;7.33;3.07;;;9.80;99.90;;;;;;5050740;28;20252;-66
2021/09/19 00:26:41;;;;;;;4.93;3.80;;;9.80;99.90;;;;;;5041038;28;20214;-67
2021/09/19 00:29:08;;;;;;;7.33;3.90;;;9.80;99.90;;;;;;5051698;28;20201;-67
2021/09/19 00:31:35;;;;;;;5.03;3.73;;;9.70;99.90;;;;;;5050520;28;20205;-68
2021/09/19 00:34:02;;;;;;;6.60;3.83;;;9.70;99.90;;;;;;5045839;28;20632;-67
2021/09/19 00:36:28;;;;;;;6.20;3.57;;;9.70;99.90;;;;;;5049538;28;20218;-67
2021/09/19 00:38:56;;;;;;;4.30;3.40;;;9.70;99.90;;;;;;5053903;28;20642;-67
2021/09/19 00:41:23;;;;;;;3.87;3.47;;;9.70;99.90;;;;;;5048027;28;20561;-67
2021/09/19 00:43:50;;;;;;;5.30;3.57;;;9.70;99.90;;;;;;5051204;28;20206;-66
2021/09/19 00:46:17;;;;;;;4.10;3.20;;;9.70;99.90;;;;;;5049550;28;20678;-67
2021/09/19 00:48:43;;;;;;;4.13;3.53;;;9.70;99.90;;;;;;5050987;28;20217;-67
2021/09/19 00:51:11;;;;;;;4.10;3.23;;;9.70;99.90;;;;;;5050018;28;20237;-67
2021/09/19 00:53:39;;;;;;;4.70;3.77;;;9.80;99.90;;;;;;5049671;28;20207;-67
2021/09/19 00:56:08;;;;;;;5.13;3.13;;;9.70;99.90;;;;;;5038495;28;20221;-67
2021/09/19 00:58:35;;;;;;;4.50;3.30;;;9.70;99.90;;;;;;5050557;28;20221;-67
2021/09/19 01:01:03;;;;;;;5.53;3.47;;;9.70;99.90;;;;;;5049466;28;20659;-67
2021/09/19 01:03:30;;;;;;;3.47;2.80;;;9.70;99.90;;;;;;5049985;28;20279;-67
2021/09/19 01:05:58;;;;;;;5.20;3.50;;;9.70;99.90;;;;;;5051222;28;20198;-67
2021/09/19 01:08:25;;;;;;;6.13;3.90;;;9.70;99.90;;;;;;5047918;28;20216;-66
2021/09/19 01:10:52;;;;;;;5.03;3.53;;;9.70;99.90;;;;;;5049800;28;20639;-67
2021/09/19 01:13:21;;;;;;;3.53;3.10;;;9.60;99.90;;;;;;5049796;28;20229;-66
2021/09/19 01:15:50;;;;;;;8.27;3.33;;;9.60;99.90;;;;;;5062398;28;20780;-67
2021/09/19 01:18:19;;;;;;;4.63;3.27;;;9.60;99.90;;;;;;5064624;28;20296;-67
2021/09/19 01:20:47;;;;;;;3.93;3.10;;;9.60;99.90;;;;;;5049997;28;20206;-67
2021/09/19 01:23:16;;;;;;;4.87;3.67;;;9.60;99.90;;;;;;5053564;28;20214;-66
2021/09/19 01:25:45;;;;;;;5.07;3.20;;;9.60;99.90;;;;;;5059175;28;20236;-67
2021/09/19 01:28:13;;;;;;;4.23;3.50;;;9.60;99.90;;;;;;5059789;28;20288;-66
2021/09/19 01:30:40;;;;;;;4.00;3.17;;;9.70;99.90;;;;;;5058500;28;20229;-67
2021/09/19 01:33:08;;;;;;;4.30;3.23;;;9.70;99.90;;;;;;5056729;28;20655;-67
2021/09/19 01:35:35;;;;;;;4.47;2.83;;;9.70;99.90;;;;;;5054416;28;20970;-67
2021/09/19 01:38:02;;;;;;;3.53;3.23;;;9.70;99.90;;;;;;5050186;28;20714;-67
2021/09/19 01:40:29;;;;;;;3.87;2.63;;;9.70;99.90;;;;;;5050328;28;20698;-67
2021/09/19 01:42:58;;;;;;;5.10;3.27;;;9.70;99.90;;;;;;5057917;28;20232;-67
2021/09/19 01:45:25;;;;;;;5.23;3.20;;;9.70;99.90;;;;;;5053615;28;20198;-67
2021/09/19 01:47:52;;;;;;;4.73;3.27;;;9.80;99.90;;;;;;5050827;28;20217;-68
2021/09/19 01:50:20;;;;;;;4.60;3.20;;;9.70;99.90;;;;;;5040601;28;20228;-67
2021/09/19 01:52:46;;;;;;;3.87;2.83;;;9.70;99.90;;;;;;5050370;28;20662;-67
2021/09/19 01:55:13;;;;;;;10.43;3.63;;;9.80;99.90;;;;;;5048703;28;20214;-68
2021/09/19 01:57:41;;;;;;;4.87;2.83;;;9.70;99.90;;;;;;5050377;28;20574;-67
2021/09/19 02:00:10;;;;;;;4.00;2.97;;;9.70;99.90;;;;;;5050050;28;20663;-67
2021/09/19 02:02:37;;;;;;;5.43;3.57;;;9.70;99.90;;;;;;5050000;28;20214;-67
2021/09/19 02:05:06;;;;;;;6.20;2.80;;;9.70;99.90;;;;;;5050236;28;20209;-66
2021/09/19 02:07:36;;;;;;;4.70;3.23;;;9.70;99.90;;;;;;5049827;28;20213;-67
2021/09/19 02:10:04;;;;;;;4.37;3.00;;;9.70;99.90;;;;;;5053108;28;20229;-66
2021/09/19 02:12:31;;;;;;;3.27;2.90;;;9.70;99.90;;;;;;5054438;28;20678;-67
2021/09/19 02:14:57;;;;;;;4.93;3.17;;;9.80;99.90;;;;;;5053321;28;20595;-67
2021/09/19 02:17:25;;;;;;;5.07;3.13;;;9.80;99.90;;;;;;5053298;28;20202;-67
2021/09/19 02:19:52;;;;;;;5.80;3.33;;;9.80;99.90;;;;;;5054036;28;20229;-66
2021/09/19 02:22:19;;;;;;;4.40;3.37;;;9.70;99.90;;;;;;5050382;28;20202;-66
2021/09/19 02:24:46;;;;;;;5.43;2.97;;;9.80;99.90;;;;;;5053421;28;20230;-67
2021/09/19 02:27:13;;;;;;;3.90;2.53;;;9.80;99.90;;;;;;5051759;28;20569;-67
2021/09/19 02:29:39;;;;;;;4.00;3.30;;;9.80;99.90;;;;;;5050954;28;20567;-67
2021/09/19 02:32:07;;;;;;;3.50;3.20;;;9.80;99.90;;;;;;5052961;28;20556;-67
2021/09/19 02:34:35;;;;;;;3.37;3.07;;;9.80;99.90;;;;;;5054190;28;20217;-66
2021/09/19 02:37:02;;;;;;;3.93;3.23;;;9.80;99.90;;;;;;5053513;28;20605;-66
2021/09/19 02:39:29;;;;;;;6.83;3.43;;;9.80;99.90;;;;;;5051531;28;20206;-66
2021/09/19 02:41:55;;;;;;;8.10;3.30;;;9.80;99.90;;;;;;5054468;28;20194;-66
2021/09/19 02:44:22;;;;;;;3.63;2.80;;;9.70;99.90;;;;;;5053063;28;20560;-69
2021/09/19 02:46:49;;;;;;;3.27;2.77;;;9.80;99.90;;;;;;5050504;28;20658;-69
2021/09/19 02:49:16;;;;;;;4.10;3.00;;;9.80;99.90;;;;;;5052500;28;20566;-69
2021/09/19 02:51:44;;;;;;;3.80;2.90;;;9.80;99.90;;;;;;5053483;28;20252;-69
2021/09/19 02:54:11;;;;;;;5.63;2.87;;;9.80;99.90;;;;;;5052926;28;20213;-69
2021/09/19 02:56:38;;;;;;;8.00;3.00;;;9.80;99.90;;;;;;5052946;28;20220;-69
2021/09/19 02:59:05;;;;;;;5.40;3.10;;;9.80;99.90;;;;;;5051053;28;20213;-68
2021/09/19 03:01:31;;;;;;;6.80;3.27;;;9.80;99.90;;;;;;5052449;28;20206;-69
2021/09/19 03:03:58;;;;;;;5.37;3.00;;;9.80;99.90;;;;;;5052903;28;21531;-69
2021/09/19 03:06:26;;;;;;;5.50;3.13;;;9.80;99.90;;;;;;5049666;28;20206;-69
2021/09/19 03:08:54;;;;;;;5.77;3.10;;;9.80;99.90;;;;;;5048059;28;20210;-69
2021/09/19 03:11:21;;;;;;;6.90;3.77;;;9.70;99.90;;;;;;5051830;28;20602;-69
2021/09/19 03:13:48;;;;;;;5.83;3.17;;;9.70;99.90;;;;;;5053245;28;20650;-69
2021/09/19 03:16:14;;;;;;;6.43;3.43;;;9.80;99.90;;;;;;5053619;28;20201;-69
2021/09/19 03:18:41;;;;;;;8.17;3.10;;;9.80;99.90;;;;;;5052076;28;20202;-69
2021/09/19 03:21:08;;;;;;;6.00;2.90;;;9.80;99.90;;;;;;5053141;28;20206;-69
2021/09/19 03:23:35;;;;;;;5.93;3.40;;;9.80;99.90;;;;;;5052553;28;20214;-69
2021/09/19 03:26:03;;;;;;;6.63;3.37;;;9.80;99.90;;;;;;5052134;28;20237;-69
2021/09/19 03:28:30;;;;;;;4.43;3.40;;;9.80;99.90;;;;;;5050995;28;20213;-71
2021/09/19 03:30:57;;;;;;;6.07;3.33;;;9.90;99.90;;;;;;5051638;28;20219;-70
2021/09/19 03:33:23;;;;;;;5.60;3.73;;;9.80;99.90;;;;;;5052631;28;20202;-69
2021/09/19 03:35:50;;;;;;;4.37;3.27;;;9.80;99.90;;;;;;5051081;28;20217;-69
2021/09/19 03:38:17;;;;;;;4.87;3.27;;;9.80;99.90;;;;;;5050092;28;20206;-69
2021/09/19 03:40:44;;;;;;;6.80;3.60;;;9.80;99.90;;;;;;5050852;28;20714;-68
2021/09/19 03:43:12;;;;;;;7.10;3.53;;;9.80;99.90;;;;;;5051561;28;20209;-68
2021/09/19 03:45:39;;;;;;;5.80;3.60;;;9.80;99.90;;;;;;5052316;28;21640;-70
2021/09/19 03:48:08;;;;;;;8.33;3.83;;;9.80;99.90;;;;;;5052701;28;20217;-69
2021/09/19 03:50:35;;;;;;;7.10;3.00;;;9.80;99.90;;;;;;5051782;28;20224;-69
2021/09/19 03:53:03;;;;;;;4.23;3.33;;;9.80;99.90;;;;;;5052029;28;20214;-70
2021/09/19 03:55:30;;;;;;;4.30;3.43;;;9.80;99.90;;;;;;5051689;28;20210;-70
2021/09/19 03:57:59;;;;;;;4.67;2.97;;;9.70;99.90;;;;;;5051343;28;20663;-69
2021/09/19 04:00:27;;;;;;;8.67;3.33;;;9.80;99.90;;;;;;5049929;28;20205;-70
2021/09/19 04:02:54;;;;;;;3.63;2.90;;;9.80;99.90;;;;;;5051508;28;20217;-69
2021/09/19 04:05:21;;;;;;;5.63;2.83;;;9.80;99.90;;;;;;5050581;28;20205;-69
2021/09/19 04:07:47;;;;;;;5.30;2.73;;;9.80;99.90;;;;;;5051480;28;20230;-69
2021/09/19 04:10:14;;;;;;;4.87;3.13;;;9.70;99.90;;;;;;5051388;28;20198;-69
2021/09/19 04:12:42;;;;;;;8.20;2.97;;;9.80;99.90;;;;;;5051815;28;20233;-69
2021/09/19 04:15:10;;;;;;;4.13;2.97;;;9.80;99.90;;;;;;5050880;28;20213;-69
2021/09/19 04:17:38;;;;;;;9.33;3.00;;;9.70;99.90;;;;;;5051904;28;20214;-69
2021/09/19 04:20:06;;;;;;;4.37;2.73;;;9.80;99.90;;;;;;5051461;28;20205;-69
2021/09/19 04:22:33;;;;;;;4.30;2.90;;;9.80;99.90;;;;;;5049757;28;20632;-69
2021/09/19 04:25:00;;;;;;;7.87;3.07;;;9.80;99.90;;;;;;5040596;28;20244;-69
2021/09/19 04:27:27;;;;;;;4.53;2.70;;;9.80;99.90;;;;;;5049721;28;20217;-69
2021/09/19 04:29:54;;;;;;;6.27;3.07;;;9.80;99.90;;;;;;5048452;28;20209;-69
2021/09/19 04:32:21;;;;;;;7.43;3.10;;;9.80;99.90;;;;;;5049248;28;20236;-70
2021/09/19 04:34:49;;;;;;;4.17;2.63;;;9.80;99.90;;;;;;5051430;28;20218;-69
2021/09/19 04:37:16;;;;;;;5.13;3.20;;;9.80;99.90;;;;;;5050191;28;20621;-69
2021/09/19 04:39:43;;;;;;;5.13;2.83;;;9.80;99.90;;;;;;5045869;28;20644;-70
2021/09/19 04:42:10;;;;;;;4.63;3.00;;;9.80;99.90;;;;;;5050383;28;20205;-68
2021/09/19 04:44:37;;;;;;;3.27;2.90;;;9.80;99.90;;;;;;5049949;28;20214;-69
2021/09/19 04:47:04;;;;;;;6.87;2.83;;;9.90;99.90;;;;;;5050412;28;20213;-69
2021/09/19 04:49:31;;;;;;;4.23;3.10;;;9.80;99.90;;;;;;5050766;28;20607;-70
2021/09/19 04:51:59;;;;;;;5.93;2.80;;;9.90;99.90;;;;;;5050570;28;20226;-69
2021/09/19 04:54:26;;;;;;;6.37;3.03;;;9.80;99.90;;;;;;5051551;28;20210;-69
2021/09/19 04:56:52;;;;;;;4.53;2.80;;;9.80;99.90;;;;;;5049284;28;20618;-69
2021/09/19 04:59:19;;;;;;;6.43;3.07;;;9.90;99.90;;;;;;5050457;28;20564;-69
2021/09/19 05:01:46;;;;;;;5.53;2.93;;;9.90;99.90;;;;;;5047762;28;20201;-69
2021/09/19 05:04:13;;;;;;;5.10;2.83;;;9.90;99.90;;;;;;5050305;28;20565;-69
2021/09/19 05:06:39;;;;;;;4.67;2.60;;;9.90;99.90;;;;;;5051902;28;20233;-69
2021/09/19 05:09:07;;;;;;;4.53;2.90;;;10.00;99.90;;;;;;5050651;28;20686;-69
2021/09/19 05:11:34;;;;;;;4.90;3.23;;;10.00;99.90;;;;;;5050451;28;20644;-69
2021/09/19 05:14:01;;;;;;;5.20;2.90;;;10.10;99.90;;;;;;5048502;28;20202;-69
2021/09/19 05:16:28;;;;;;;6.37;3.40;;;10.10;99.90;;;;;;5051238;28;20213;-69
2021/09/19 05:18:56;;;;;;;6.50;2.87;;;10.10;99.90;;;;;;5050681;28;20218;-69
2021/09/19 05:21:23;;;;;;;11.87;2.70;;;10.10;99.90;;;;;;5051329;28;20476;-69
2021/09/19 05:23:50;;;;;;;4.47;2.90;;;10.10;99.90;;;;;;5048993;28;20206;-69
2021/09/19 05:26:18;;;;;;;4.53;3.10;;;10.20;99.90;;;;;;5050234;28;20264;-70
2021/09/19 05:28:45;;;;;;;6.40;3.03;;;10.20;99.90;;;;;;5058492;28;20206;-69
2021/09/19 05:31:12;;;;;;;3.80;2.97;;;10.20;99.90;;;;;;5063646;28;20228;-69
2021/09/19 05:33:39;;;;;;;4.60;2.93;;;10.20;99.90;;;;;;5044048;28;20212;-70
2021/09/19 05:36:06;;;;;;;5.30;2.93;;;10.30;99.90;;;;;;5055846;28;20234;-69
2021/09/19 05:38:33;;;;;;;5.23;3.03;;;10.30;99.90;;;;;;5052002;28;20210;-70
2021/09/19 05:41:00;;;;;;;5.57;3.80;;;10.30;99.90;;;;;;5054716;28;20202;-69
2021/09/19 05:43:28;;;;;;;4.57;2.80;;;10.20;99.90;;;;;;5057867;28;20578;-69
2021/09/19 05:45:55;;;;;;;3.43;2.30;;;10.20;99.90;;;;;;5066314;28;20202;-69
2021/09/19 05:48:21;;;;;;;3.13;2.83;;;10.30;99.90;;;;;;5065875;28;20216;-68
2021/09/19 05:50:48;;;;;;;3.50;2.47;;;10.30;99.90;;;;;;5055734;28;20198;-69
2021/09/19 05:53:15;;;;;;;5.40;2.77;;;10.30;99.90;;;;;;5055152;28;20216;-69
2021/09/19 05:55:42;;;;;;;6.60;2.70;;;10.30;99.90;;;;;;5053890;28;20214;-69
2021/09/19 05:58:09;;;;;;;4.53;2.80;;;10.40;99.90;;;;;;5049662;28;20214;-68
2021/09/19 06:00:37;;;;;;;3.77;2.73;;;10.40;99.90;;;;;;5048854;28;20213;-68
2021/09/19 06:03:04;;;;;;;3.57;2.70;;;10.40;99.90;;;;;;5042241;28;20213;-69
2021/09/19 06:05:31;;;;;;;5.00;2.40;;;10.40;99.90;;;;;;5053707;28;20218;-69
2021/09/19 06:07:58;;;;;;;3.80;2.80;;;10.40;99.90;;;;;;5053038;28;20469;-67
2021/09/19 06:10:24;;;;;;;6.30;2.90;;;10.50;99.90;;;;;;5049892;28;20206;-70
2021/09/19 06:12:51;;;;;;;6.53;3.43;;;10.50;99.90;;;;;;5053146;28;20663;-68
2021/09/19 06:15:18;;;;;;;4.20;2.50;;;10.50;99.90;;;;;;5053904;28;20214;-70
2021/09/19 06:17:46;;;;;;;4.23;2.63;;;10.50;99.90;;;;;;5054921;28;20209;-69
2021/09/19 06:20:13;;;;;;;6.97;2.83;;;10.50;99.90;;;;;;5053125;28;20206;-69
2021/09/19 06:22:40;;;;;;;6.83;2.77;;;10.50;99.90;;;;;;5054557;28;20201;-69
2021/09/19 06:25:08;;;;;;;15.03;2.90;;;10.50;99.90;;;;;;5067414;28;20248;-68
2021/09/19 06:27:34;;;;;;;3.70;2.40;;;10.60;99.90;;;;;;5064331;28;20658;-68
2021/09/19 06:30:01;;;;;;;4.70;2.90;;;10.60;99.90;;;;;;5058508;28;20210;-69
2021/09/19 06:32:28;;;;;;;4.23;2.47;;;10.60;99.90;;;;;;5055365;28;20225;-68
2021/09/19 06:34:56;;;;;;;7.27;3.10;;;10.60;99.90;;;;;;5059617;28;20663;-68
2021/09/19 06:37:23;;;;;;;2.97;2.50;;;10.60;99.90;;;;;;5055137;28;20235;-68
2021/09/19 06:39:50;;;;;;;7.10;2.50;;;10.50;99.90;;;;;;5057893;28;20625;-69
2021/09/19 06:42:17;;;;;;;3.07;2.53;;;10.60;99.90;;;;;;5054404;28;20213;-68
2021/09/19 06:44:44;;;;;;;6.10;2.87;;;10.60;99.90;;;;;;5064396;28;20208;-68
2021/09/19 06:47:10;;;;;;;4.73;2.60;;;10.50;99.90;;;;;;5059225;28;20233;-69
2021/09/19 06:49:37;;;;;;;3.30;2.63;;;10.60;99.90;;;;;;5059230;28;20211;-67
2021/09/19 06:52:06;;;;;;;3.70;2.63;;;10.60;99.90;;;;;;5053621;28;20241;-69
2021/09/19 06:54:32;;;;;;;7.13;2.90;;;10.60;99.90;;;;;;5052242;28;20201;-68
2021/09/19 06:56:59;;;;;;;7.20;2.60;;;10.60;99.90;;;;;;5049696;28;20693;-69
2021/09/19 06:59:26;;;;;;;6.47;3.00;;;10.70;99.90;;;;;;5051027;28;20716;-68
2021/09/19 07:01:53;;;;;;;3.47;2.40;;;10.70;99.90;;;;;;5051727;28;20206;-69
2021/09/19 07:04:19;;;;;;;5.53;2.57;;;10.80;99.90;;;;;;5052003;28;20646;-68
2021/09/19 07:06:46;;;;;;;3.17;2.27;;;10.70;99.90;;;;;;5050427;28;20221;-69
2021/09/19 07:09:15;;;;;;;6.37;2.60;;;10.80;99.90;;;;;;5052948;28;20232;-67
2021/09/19 07:11:41;;;;;;;6.30;2.13;;;10.90;99.90;;;;;;5050740;28;20233;-68
2021/09/19 07:14:08;;;;;;;2.27;2.07;;;11.00;99.90;;;;;;5052872;28;20231;-69
2021/09/19 07:16:35;;;;;;;3.77;2.60;;;11.00;99.90;;;;;;5051784;28;20206;-68
2021/09/19 07:19:02;;;;;;;2.87;2.57;;;11.00;99.90;;;;;;5052732;28;20208;-69
2021/09/19 07:21:28;;;;;;;4.53;2.20;;;11.10;99.90;;;;;;5051756;28;20218;-68
2021/09/19 07:23:55;;;;;;;7.73;2.10;;;11.10;99.90;;;;;;5052608;28;20221;-68
2021/09/19 07:26:24;;;;;;;3.33;2.40;;;11.10;99.90;;;;;;5051419;28;20241;-69
2021/09/19 07:28:51;;;;;;;3.20;2.23;;;11.10;99.90;;;;;;5047805;28;20229;-67
2021/09/19 07:31:18;;;;;;;3.37;2.37;;;11.10;99.90;;;;;;5052690;28;20214;-68
2021/09/19 07:33:45;;;;;;;2.67;2.20;;;11.10;99.90;;;;;;5051589;28;20206;-69
2021/09/19 07:36:13;;;;;;;4.43;2.00;;;11.10;99.90;;;;;;5050711;28;20221;-68
2021/09/19 07:38:40;;;;;;;3.93;2.20;;;11.10;99.90;;;;;;5050116;28;20216;-67
2021/09/19 07:41:07;;;;;;;5.80;2.40;;;11.20;99.90;;;;;;5053147;28;20571;-69
2021/09/19 07:43:36;;;;;;;2.73;2.40;;;11.20;99.90;;;;;;5043742;28;20209;-69
2021/09/19 07:46:04;;;;;;;5.67;2.20;;;11.20;99.90;;;;;;5046107;28;20210;-69
2021/09/19 07:48:31;;;;;;;4.57;3.37;;;11.20;99.90;;;;;;5041832;28;20209;-69
2021/09/19 07:50:58;;;;;;;4.07;1.97;;;11.20;99.90;;;;;;5044024;28;20201;-69
2021/09/19 07:53:25;;;;;;;4.33;2.33;;;11.20;99.90;;;;;;5044754;28;20229;-69
2021/09/19 07:55:52;;;;;;;2.80;2.10;;;11.20;99.90;;;;;;5041636;28;20217;-68
2021/09/19 07:58:18;;;;;;;2.80;2.03;;;11.20;99.90;;;;;;5052380;28;20209;-68
2021/09/19 08:00:47;;;;;;;3.00;2.13;;;11.30;99.90;;;;;;5045477;28;20229;-68
2021/09/19 08:03:13;;;;;;;3.47;1.93;;;11.30;99.90;;;;;;5051029;28;20202;-67
2021/09/19 08:05:41;;;;;;;3.37;2.07;;;11.30;99.90;;;;;;5050731;28;20689;-69
2021/09/19 08:08:08;;;;;;;2.90;1.90;;;11.30;99.90;;;;;;5051625;28;20288;-68
2021/09/19 08:10:35;;;;;;;5.37;2.63;;;11.30;99.90;;;;;;5042403;28;20206;-69
2021/09/19 08:13:01;;;;;;;3.40;1.93;;;11.30;99.90;;;;;;5041795;28;20261;-68
2021/09/19 08:15:28;;;;;;;4.23;2.10;;;11.30;99.90;;;;;;5044740;28;20218;-69
2021/09/19 08:17:56;;;;;;;2.97;1.77;;;11.30;99.90;;;;;;5045327;28;20677;-68
2021/09/19 08:20:23;;;;;;;3.23;1.97;;;11.30;99.90;;;;;;5043427;28;20216;-70
2021/09/19 08:22:50;;;;;;;4.17;2.47;;;11.30;99.90;;;;;;5045198;28;20244;-70
2021/09/19 08:25:18;;;;;;;3.17;2.10;;;11.20;99.90;;;;;;5044597;28;20236;-69
2021/09/19 08:27:46;;;;;;;2.37;1.90;;;11.20;99.90;;;;;;5047537;28;20710;-67
2021/09/19 08:30:14;;;;;;;4.03;2.13;;;11.30;99.90;;;;;;5053946;28;20202;-66
2021/09/19 08:32:41;;;;;;;2.60;2.00;;;11.30;99.90;;;;;;5060053;28;20221;-68
2021/09/19 08:35:12;;;;;;;2.60;2.10;;;11.30;99.90;;;;;;5057830;28;20583;-67
2021/09/19 08:37:39;;;;;;;2.70;2.23;;;11.30;99.90;;;;;;5054007;28;20224;-68
2021/09/19 08:40:08;;;;;;;3.63;2.27;;;11.40;99.90;;;;;;5058601;28;20674;-66
2021/09/19 08:42:36;;;;;;;3.43;2.27;;;11.40;99.90;;;;;;5057113;28;20604;-69
2021/09/19 08:45:04;;;;;;;5.40;1.87;;;11.40;99.90;;;;;;5055872;28;20202;-66
2021/09/19 08:47:31;;;;;;;5.23;2.23;;;11.50;99.90;;;;;;5058834;28;20213;-68
2021/09/19 08:49:58;;;;;;;3.70;2.20;;;11.60;99.90;;;;;;5059052;28;20210;-69
2021/09/19 08:52:27;;;;;;;4.23;2.20;;;11.60;99.90;;;;;;5059832;28;20705;-69
2021/09/19 08:54:53;;;;;;;2.63;1.93;;;11.70;99.90;;;;;;5057600;28;20574;-68
2021/09/19 08:57:20;;;;;;;3.43;1.70;;;11.70;99.90;;;;;;5053316;28;20202;-68
2021/09/19 08:59:49;;;;;;;3.13;2.00;;;11.70;99.90;;;;;;5051206;28;20652;-69
2021/09/19 09:02:17;;;;;;;2.27;2.03;;;11.70;99.90;;;;;;5057205;28;20201;-69
2021/09/19 09:04:44;;;;;;;2.40;2.03;;;11.70;99.90;;;;;;5055507;28;20214;-68
2021/09/19 09:07:12;;;;;;;5.60;2.30;;;11.80;99.90;;;;;;5056253;28;20217;-70
2021/09/19 09:09:52;;;;;;;4.17;2.40;;;11.80;99.90;;;;;;5055990;28;20214;-68
2021/09/19 09:12:19;;;;;;;2.77;2.10;;;11.80;99.90;;;;;;5050397;28;20211;-68
2021/09/19 09:14:48;;;;;;;3.03;1.90;;;11.90;99.90;;;;;;5052166;28;20206;-69
2021/09/19 09:17:18;;;;;;;3.37;2.30;;;12.00;99.90;;;;;;5055821;28;20239;-69
2021/09/19 09:19:46;;;;;;;4.80;2.20;;;12.00;99.90;;;;;;5052605;28;20210;-69
2021/09/19 09:22:13;;;;;;;3.43;2.23;;;12.10;99.90;;;;;;5057907;28;20209;-68
2021/09/19 09:24:43;;;;;;;2.87;1.93;;;12.20;99.90;;;;;;5058677;28;20651;-68
2021/09/19 09:27:23;;;;;;;5.63;2.27;;;12.20;99.90;;;;;;5054047;28;20289;-67
2021/09/19 09:30:13;;;;;;;4.30;2.17;;;12.30;99.90;;;;;;5058473;28;20210;-69
2021/09/19 09:32:59;;;;;;;3.20;2.07;;;12.30;99.90;;;;;;5055288;28;20225;-67
2021/09/19 09:35:31;;;;;;;3.93;1.83;;;12.30;99.90;;;;;;5061817;28;20206;-66
2021/09/19 09:37:58;;;;;;;3.37;2.07;;;12.30;99.90;;;;;;5053501;28;20222;-68
2021/09/19 09:40:29;;;;;;;2.57;2.00;;;12.20;99.90;;;;;;5064479;28;20208;-68
2021/09/19 09:43:08;;;;;;;3.27;2.10;;;12.10;99.90;;;;;;5065744;28;20193;-68
2021/09/19 09:45:36;;;;;;;2.50;1.90;;;12.20;99.90;;;;;;5063499;28;20215;-68
2021/09/19 09:48:04;;;;;;;3.23;2.10;;;12.20;99.90;;;;;;5062631;28;20201;-68
2021/09/19 09:50:32;;;;;;;2.83;1.93;;;12.20;99.90;;;;;;5064039;28;20213;-68
2021/09/19 09:53:11;;;;;;;4.73;2.33;;;12.30;99.90;;;;;;5059962;28;20673;-68
2021/09/19 09:55:43;;;;;;;2.67;2.27;;;12.30;99.90;;;;;;5065312;28;20201;-69
2021/09/19 09:58:11;;;;;;;3.43;1.77;;;12.40;99.90;;;;;;5066389;28;20592;-69
2021/09/19 10:00:39;;;;;;;6.93;2.63;;;12.40;99.90;;;;;;5055865;28;20209;-69
2021/09/19 10:03:06;;;;;;;2.10;1.57;;;12.40;99.90;;;;;;5065805;28;20649;-69
2021/09/19 10:05:33;;;;;;;2.70;2.00;;;12.50;99.90;;;;;;5066446;28;20220;-69
2021/09/19 10:08:00;;;;;;;2.20;1.90;;;12.40;99.90;;;;;;5061328;28;20239;-68
2021/09/19 10:10:30;;;;;;;2.50;2.20;;;12.50;99.90;;;;;;5062919;28;20677;-68
2021/09/19 10:12:58;;;;;;;1.93;1.73;;;12.50;99.90;;;;;;5060151;28;20721;-67
2021/09/19 10:15:27;;;;;;;2.20;1.90;;;12.40;99.90;;;;;;5064530;28;20224;-68
2021/09/19 10:17:55;;;;;;;2.63;1.60;;;12.40;99.90;;;;;;5061179;28;20216;-68
2021/09/19 10:20:28;;;;;;;2.20;2.00;;;12.30;99.90;;;;;;5067319;28;20209;-68
2021/09/19 10:23:01;;;;;;;2.60;1.83;;;12.30;99.90;;;;;;5060448;28;20225;-68
2021/09/19 10:25:52;;;;;;;2.20;2.00;;;12.30;99.90;;;;;;5059655;28;20264;-69
2021/09/19 10:28:34;;;;;;;4.03;2.20;;;12.30;99.90;;;;;;5051317;28;20210;-68
2021/09/19 10:31:30;;;;;;;2.60;1.70;;;12.30;99.90;;;;;;5071620;28;20239;-68
2021/09/19 10:34:00;;;;;;;1.97;1.73;;;12.30;99.90;;;;;;5063075;28;20217;-68
2021/09/19 10:36:49;;;;;;;2.73;2.17;;;12.30;99.90;;;;;;5058827;28;20485;-70
2021/09/19 10:39:25;;;;;;;2.43;2.20;;;12.30;99.90;;;;;;5061599;28;20205;-69
2021/09/19 10:42:21;;;;;;;4.27;2.20;;;12.40;99.90;;;;;;5056247;28;20292;-69
2021/09/19 10:44:58;;;;;;;2.33;2.00;;;12.40;99.90;;;;;;5064209;28;20239;-69
2021/09/19 10:47:36;;;;;;;3.83;1.90;;;12.30;99.90;;;;;;5067800;28;20205;-70
2021/09/19 10:50:32;;;;;;;3.13;2.00;;;12.40;99.90;;;;;;5054899;28;20205;-68
2021/09/19 10:53:01;;;;;;;5.07;2.10;;;12.40;99.90;;;;;;5040830;28;20222;-69
2021/09/19 10:55:31;;;;;;;7.90;2.17;;;12.40;99.90;;;;;;5048005;28;20655;-70
2021/09/19 10:58:02;;;;;;;2.20;2.00;;;12.50;99.90;;;;;;5053425;28;20202;-70
2021/09/19 11:00:31;;;;;;;4.07;2.37;;;12.60;99.90;;;;;;5053253;28;20268;-69
2021/09/19 11:03:10;;;;;;;3.07;2.20;;;12.70;99.90;;;;;;5053626;28;20206;-69
2021/09/19 11:05:42;;;;;;;3.20;1.80;;;12.70;99.90;;;;;;5053369;28;20545;-70
2021/09/19 11:08:31;;;;;;;3.47;2.13;;;12.80;99.90;;;;;;5053605;28;20205;-69
2021/09/19 11:11:28;;;;;;;2.20;1.93;;;12.90;99.90;;;;;;5053971;28;20194;-68
2021/09/19 11:14:06;;;;;;;2.50;1.83;;;12.90;99.90;;;;;;5055138;28;20209;-69
2021/09/19 11:16:42;;;;;;;2.63;2.07;;;12.90;99.90;;;;;;5063818;28;20220;-69
2021/09/19 11:19:11;;;;;;;6.57;2.00;;;12.80;99.90;;;;;;5064915;28;20216;-68
2021/09/19 11:21:48;;;;;;;2.00;1.80;;;12.70;99.90;;;;;;5054369;28;20201;-68
2021/09/19 11:24:24;;;;;;;1.93;1.80;;;12.70;99.90;;;;;;5062048;28;20197;-68
2021/09/19 11:26:55;;;;;;;1.80;1.70;;;12.60;99.90;;;;;;5064277;28;20249;-68
2021/09/19 11:29:25;;;;;;;3.67;1.93;;;12.70;99.90;;;;;;5054873;28;20209;-69
2021/09/19 11:31:56;;;;;;;2.80;1.67;;;12.60;99.90;;;;;;5062061;28;20216;-68
2021/09/19 11:34:25;;;;;;;2.00;1.80;;;12.60;99.90;;;;;;5057390;28;20209;-68
2021/09/19 11:36:53;;;;;;;4.57;1.70;;;12.70;99.90;;;;;;5066740;28;20221;-68
2021/09/19 11:39:21;;;;;;;2.30;2.00;;;12.60;99.90;;;;;;5055405;28;20222;-68
2021/09/19 11:41:49;;;;;;;3.43;1.97;;;12.60;99.90;;;;;;5062476;28;20670;-69
2021/09/19 11:44:17;;;;;;;3.83;2.43;;;12.50;99.90;;;;;;5062199;28;20577;-70
2021/09/19 11:46:46;;;;;;;3.17;2.03;;;12.50;99.90;;;;;;5068842;28;20224;-69
2021/09/19 11:49:15;;;;;;;2.23;1.97;;;12.50;99.90;;;;;;5058071;28;20680;-68
2021/09/19 11:51:43;;;;;;;2.27;2.07;;;12.50;99.90;;;;;;5051310;28;20213;-68
2021/09/19 11:54:13;;;;;;;2.90;2.23;;;12.50;99.90;;;;;;5051255;28;20233;-68
2021/09/19 11:56:43;;;;;;;4.00;2.10;;;12.50;99.90;;;;;;5055811;28;20240;-66
2021/09/19 11:59:12;;;;;;;2.97;1.67;;;12.50;99.90;;;;;;5068109;28;20197;-68
2021/09/19 12:01:40;;;;;;;2.67;2.13;;;12.50;99.90;;;;;;5071294;28;20213;-68
2021/09/19 12:04:09;;;;;;;3.27;2.30;;;12.60;99.90;;;;;;5057658;28;20216;-69
2021/09/19 12:06:38;;;;;;;4.40;2.07;;;12.60;99.90;;;;;;5054910;28;20224;-67
2021/09/19 12:09:09;;;;;;;5.37;1.90;;;12.70;99.90;;;;;;5054943;28;20213;-68
2021/09/19 12:11:41;;;;;;;3.40;2.27;;;12.70;99.90;;;;;;5051461;28;20252;-68
2021/09/19 12:14:18;;;;;;;2.50;1.90;;;12.60;99.90;;;;;;5055103;28;20679;-69
2021/09/19 12:17:01;;;;;;;2.90;2.40;;;12.60;99.90;;;;;;5054806;28;20251;-68
2021/09/19 12:19:29;;;;;;;5.57;2.20;;;12.60;99.90;;;;;;5053958;28;20216;-67
2021/09/19 12:21:59;;;;;;;2.33;2.00;;;12.60;99.90;;;;;;5050875;28;20225;-67
2021/09/19 12:24:30;;;;;;;2.63;2.23;;;12.60;99.90;;;;;;5056847;28;20212;-68
2021/09/19 12:27:11;;;;;;;3.90;2.03;;;12.70;99.90;;;;;;5056513;28;20197;-67
2021/09/19 12:29:39;;;;;;;5.10;2.53;;;12.60;99.90;;;;;;5053450;28;20206;-67
2021/09/19 12:32:06;;;;;;;2.60;2.10;;;12.70;99.90;;;;;;5057005;28;20681;-67
2021/09/19 12:34:33;;;;;;;4.30;2.47;;;12.60;99.90;;;;;;5062323;28;20588;-68
2021/09/19 12:37:01;;;;;;;3.00;2.27;;;12.60;99.90;;;;;;5065041;28;20225;-67
2021/09/19 12:39:31;;;;;;;2.63;2.43;;;12.60;99.90;;;;;;5056491;28;20210;-67
2021/09/19 12:42:00;;;;;;;3.93;2.53;;;12.60;99.90;;;;;;5057553;28;20616;-69
2021/09/19 12:44:28;;;;;;;2.73;2.30;;;12.50;99.90;;;;;;5059585;28;20201;-68
2021/09/19 12:46:58;;;;;;;3.47;2.70;;;12.50;99.90;;;;;;5064309;28;20568;-68
2021/09/19 12:49:26;;;;;;;6.23;2.40;;;12.50;99.90;;;;;;5067916;28;20205;-68
2021/09/19 12:52:05;;;;;;;2.77;2.27;;;12.50;99.90;;;;;;5051815;28;20218;-68
2021/09/19 12:54:32;;;;;;;5.73;2.80;;;12.50;99.90;;;;;;5045382;28;20759;-68
2021/09/19 12:56:59;;;;;;;3.03;2.40;;;12.60;99.90;;;;;;5051220;28;20289;-67
2021/09/19 12:59:26;;;;;;;2.83;2.27;;;12.60;99.90;;;;;;5050935;28;20205;-66